• Join FlightAware (Why Join?)
  • Login
  • US Flag 
08:31AM EDT


 

Airport Tracker/Info


-or-


 

Live Flight TrackerFlight Track Log ✈ AWE1253 ✈ 20-Apr-2013 ✈ KPHL - KTPA

Flight Track Log - Related Links

Times and Time Zones

All times are in EDT time to prevent confusion due to time zone crossing. See the AWE1253 flight status page for this flight to view local times or setup timezone preferences in your user account.

Time Position Orientation Groundspeed Altitude Reporting Facility
EDT Latitude Longitude Course Direction KTS MPH feet Rate Location/Type
08:44PM 39.8592 -75.2794 221° Southwest 158 182 900  Level FAA TRACON SMA TRACON (SMA)
08:44PM 39.8475 -75.2928 221° Southwest 177 204 1,700 1,920 Climbing FAA TRACON SMA TRACON (SMA)
08:44PM 39.8311 -75.3056 211° Southwest 198 228 2,200 1,920 Climbing FAA TRACON SMA TRACON (SMA)
08:45PM 39.8142 -75.3203 214° Southwest 215 247 3,000 2,460 Climbing FAA TRACON SMA TRACON (SMA)
08:45PM 39.7975 -75.3344 213° Southwest 226 260 3,800 2,700 Climbing FAA TRACON SMA TRACON (SMA)
08:45PM 39.7758 -75.3519 212° Southwest 257 296 4,800 3,120 Climbing FAA TRACON SMA TRACON (SMA)
08:46PM 39.7539 -75.3667 207° Southwest 266 306 5,900 3,300 Climbing FAA TRACON SMA TRACON (SMA)
08:46PM 39.7311 -75.3689 184° South 274 315 7,000 3,000 Climbing FAA TRACON SMA TRACON (SMA)
08:46PM 39.7075 -75.3697 182° South 273 314 7,900 3,000 Climbing FAA TRACON SMA TRACON (SMA)
08:47PM 39.6769 -75.3706 181° South 284 327 9,000 3,300 Climbing FAA TRACON SMA TRACON (SMA)
08:47PM 39.6517 -75.3714 181° South 290 334 10,100 2,880 Climbing FAA TRACON SMA TRACON (SMA)
08:47PM 39.6203 -75.3722 181° South 292 336 11,000 2,100 Climbing FAA TRACON SMA TRACON (SMA)
08:48PM 39.5931 -75.3731 181° South 316 364 11,500 1,620 Climbing FAA TRACON SMA TRACON (SMA)
08:48PM 39.5647 -75.3736 181° South 332 382 12,100 2,520 Climbing FAA TRACON SMA TRACON (SMA)
08:48PM 39.5283 -75.3742 181° South 337 388 13,200 3,120 Climbing FAA TRACON SMA TRACON (SMA)
08:49PM 39.4992 -75.3750 181° South 338 389 14,200 2,700 Climbing FAA TRACON SMA TRACON (SMA)
08:49PM 39.4703 -75.3744 179° South 339 390 15,000 2,220 Climbing FAA TRACON SMA TRACON (SMA)
08:49PM 39.4336 -75.3756 181° South 342 394 15,700 1,620 Climbing FAA TRACON SMA TRACON (SMA)
08:50PM 39.4033 -75.3767 182° South 347 399 16,100 900 Climbing FAA TRACON SMA TRACON (SMA)
08:50PM 39.3736 -75.3775 181° South 348 400 16,300 900 Climbing FAA TRACON SMA TRACON (SMA)
08:50PM 39.3356 -75.3783 181° South 351 404 16,700 1,020 Climbing FAA TRACON SMA TRACON (SMA)
08:51PM 39.3050 -75.3789 181° South 352 405 17,000 600 Climbing FAA TRACON SMA TRACON (SMA)
08:51PM 39.2747 -75.3792 180° South 353 406 17,100 120 Climbing FAA TRACON SMA TRACON (SMA)
08:51PM 39.2442 -75.3797 181° South 354 407 17,100  Level FAA TRACON SMA TRACON (SMA)
08:52PM 39.2442 -75.3797 207° Southwest 354 407 17,100 1,080 Level FAA TRACON SMA TRACON (SMA)
08:54PM 39.0278 -75.4072 186° South 352 405 19,600 1,740 Climbing Washington Center
08:55PM 38.9256 -75.4236 187° South 352 405 21,800 2,100 Climbing Washington Center
08:56PM 38.8278 -75.4425 189° South 357 411 23,800 1,920 Climbing Washington Center
08:57PM 38.7214 -75.4558 186° South 371 427 25,700 2,580 Climbing Washington Center
08:58PM 38.6256 -75.4694 186° South 371 427 29,000 2,100 Climbing Washington Center
08:59PM 38.5297 -75.4856 187° South 359 413 30,000 540 Climbing Washington Center
09:00PM 38.4336 -75.4989 186° South 354 407 30,100 720 Climbing Washington Center
09:01PM 38.3400 -75.5256 193° South 349 402 31,500 1,320 Climbing Washington Center
09:02PM 38.2564 -75.5892 211° Southwest 349 402 32,800 1,200 Climbing Washington Center
09:03PM 38.1814 -75.6631 218° Southwest 344 396 34,000 1,320 Climbing Washington Center
09:04PM 38.1083 -75.7317 216° Southwest 344 396 35,500 1,320 Climbing Washington Center
09:05PM 38.0333 -75.8131 221° Southwest 339 390 36,700 960 Climbing Washington Center
09:06PM 37.9642 -75.8683 212° Southwest 328 377 37,500 600 Climbing Washington Center
09:07PM 37.8953 -75.9339 217° Southwest 328 377 38,000 240 Climbing Washington Center
09:08PM 37.8178 -76.0122 219° Southwest 323 372 38,000  Level Washington Center
09:09PM 37.7467 -76.0828 218° Southwest 323 372 38,000  Level Washington Center
09:10PM 37.6756 -76.1506 217° Southwest 323 372 38,000  Level Washington Center
09:11PM 37.6022 -76.2131 214° Southwest 323 372 38,000  Level Washington Center
09:12PM 37.5289 -76.2831 217° Southwest 323 372 38,000  Level Washington Center
09:13PM 37.4575 -76.3478 216° Southwest 323 372 38,000  Level Washington Center
09:14PM 37.3842 -76.4178 217° Southwest 323 372 38,000  Level Washington Center
09:15PM 37.3128 -76.4822 216° Southwest 323 372 38,000  Level Washington Center
09:16PM 37.2369 -76.5519 216° Southwest 323 372 38,000  Level Washington Center
09:17PM 37.1633 -76.6214 217° Southwest 323 372 38,000  Level Washington Center
09:18PM 37.0919 -76.6881 217° Southwest 323 372 38,000  Level Washington Center
09:19PM 37.0183 -76.7572 217° Southwest 328 377 38,000  Level Washington Center
09:20PM 36.9403 -76.8289 216° Southwest 333 383 38,000  Level Washington Center
09:21PM 36.8644 -76.8978 216° Southwest 333 383 38,000  Level Washington Center
09:22PM 36.7908 -76.9664 217° Southwest 338 389 38,000 -60 Level Washington Center
09:23PM 36.7150 -77.0350 216° Southwest 338 389 37,900 -60 Descending Washington Center
09:24PM 36.6389 -77.1061 217° Southwest 338 389 37,900  Level Washington Center
09:25PM 36.5628 -77.1744 216° Southwest 338 389 38,000  Climbing Washington Center
09:26PM 36.4867 -77.2478 218° Southwest 343 395 38,000  Level Washington Center
09:27PM 36.4086 -77.3186 216° Southwest 348 400 38,000  Level Washington Center
09:28PM 36.3325 -77.3839 215° Southwest 348 400 38,000  Level Washington Center
09:29PM 36.2542 -77.4569 217° Southwest 348 400 38,000  Level Washington Center
09:30PM 36.1886 -77.5169 216° Southwest 340 391 38,000  Level Washington Center
09:31PM 36.1103 -77.5844 215° Southwest 345 397 38,000  Level Washington Center
09:32PM 36.0319 -77.6544 216° Southwest 351 404 38,000  Level Washington Center
09:33PM 35.9514 -77.7319 218° Southwest 356 410 38,000  Level Washington Center
09:34PM 35.8728 -77.8067 218° Southwest 361 415 38,100  Climbing Washington Center
09:35PM 35.7919 -77.8814 217° Southwest 366 421 38,000 -60 Descending Washington Center
09:36PM 35.7133 -77.9558 218° Southwest 366 421 38,000  Level Washington Center
09:37PM 35.6367 -78.0303 218° Southwest 366 421 38,000  Level Washington Center
09:38PM 35.5603 -78.0994 216° Southwest 361 415 38,000  Level Washington Center
09:39PM 35.4814 -78.1733 217° Southwest 361 415 38,000  Level Washington Center
09:40PM 35.3961 -78.2547 218° Southwest 361 415 38,000  Level Washington Center
09:41PM 35.3172 -78.3283 217° Southwest 361 415 38,000  Level Washington Center
09:42PM 35.2383 -78.4019 217° Southwest 355 409 38,000  Level Washington Center
09:43PM 35.1617 -78.4756 218° Southwest 355 409 38,000  Level Washington Center
09:44PM 35.0847 -78.5489 218° Southwest 360 414 38,000  Level Washington Center
09:46PM 34.9122 -78.7081 217° Southwest 365 420 38,000  Level Jacksonville Center
09:47PM 34.8333 -78.7803 217° Southwest 365 420 38,000  Level Jacksonville Center
09:48PM 34.7564 -78.8522 218° Southwest 365 420 38,000  Level Jacksonville Center
09:49PM 34.6775 -78.9267 218° Southwest 365 420 38,000  Level Jacksonville Center
09:50PM 34.5983 -78.9983 217° Southwest 365 420 38,000  Level Jacksonville Center
09:51PM 34.5192 -79.0725 218° Southwest 365 420 38,000  Level Jacksonville Center
09:52PM 34.4381 -79.1514 219° Southwest 365 420 38,000  Level Jacksonville Center
09:53PM 34.3569 -79.2256 217° Southwest 365 420 38,000  Level Jacksonville Center
09:54PM 34.2775 -79.2992 217° Southwest 365 420 38,000 -60 Level Jacksonville Center
09:55PM 34.1942 -79.3728 216° Southwest 365 420 37,900  Descending Jacksonville Center
09:56PM 34.1108 -79.4489 217° Southwest 365 420 38,000  Climbing Jacksonville Center
09:57PM 34.0292 -79.5197 216° Southwest 359 413 38,000  Level Jacksonville Center
09:58PM 33.9478 -79.5956 218° Southwest 365 420 38,000  Level Jacksonville Center
09:59PM 33.8642 -79.6686 216° Southwest 365 420 38,000  Level Jacksonville Center
10:00PM 33.7844 -79.7417 217° Southwest 365 420 38,000  Level Jacksonville Center
10:01PM 33.7028 -79.8144 217° Southwest 370 426 38,000  Level Jacksonville Center
10:02PM 33.6233 -79.8869 217° Southwest 370 426 38,000  Level Jacksonville Center
10:03PM 33.5436 -79.9594 217° Southwest 370 426 38,000  Level Jacksonville Center
10:04PM 33.4639 -80.0319 217° Southwest 370 426 38,000  Level Jacksonville Center
10:05PM 33.3839 -80.1017 216° Southwest 365 420 38,000  Level Jacksonville Center
10:06PM 33.3042 -80.1736 217° Southwest 365 420 38,000  Level Jacksonville Center
10:07PM 33.2264 -80.2431 217° Southwest 365 420 38,000  Level Jacksonville Center
10:08PM 33.1444 -80.3125 215° Southwest 372 428 38,000  Level Jacksonville Center
10:09PM 33.0622 -80.3842 216° Southwest 371 427 38,000  Level Jacksonville Center
10:10PM 32.9864 -80.4533 217° Southwest 379 436 38,000  Level Jacksonville Center
10:11PM 32.9064 -80.5222 216° Southwest 379 436 38,000  Level Jacksonville Center
10:12PM 32.8242 -80.5911 215° Southwest 374 430 38,000  Level Jacksonville Center
10:13PM 32.7419 -80.6622 216° Southwest 374 430 38,000  Level Jacksonville Center
10:14PM 32.6597 -80.7336 216° Southwest 374 430 38,000  Level Jacksonville Center
10:15PM 32.5794 -80.8044 217° Southwest 379 436 38,000 -60 Level Jacksonville Center
10:16PM 32.4950 -80.8778 216° Southwest 379 436 37,900  Descending Jacksonville Center
10:17PM 32.4106 -80.9536 217° Southwest 374 430 38,000  Climbing Jacksonville Center
10:18PM 32.3383 -81.0164 216° Southwest 361 415 38,000  Level Jacksonville Center
10:19PM 32.2517 -81.0869 215° Southwest 374 430 38,000 -60 Level Jacksonville Center
10:20PM 32.1692 -81.1575 216° Southwest 380 437 37,900 -60 Descending Jacksonville Center
10:21PM 32.0889 -81.2250 215° Southwest 375 432 37,900  Level Jacksonville Center
10:22PM 32.0061 -81.2953 216° Southwest 375 432 38,000  Climbing Jacksonville Center
10:23PM 31.9256 -81.3653 216° Southwest 375 432 38,000  Level Jacksonville Center
10:24PM 31.8450 -81.4350 216° Southwest 370 426 38,000  Level Jacksonville Center
10:25PM 31.7539 -81.5122 216° Southwest 370 426 38,000  Level Jacksonville Center
10:26PM 31.6733 -81.5817 216° Southwest 377 434 38,000  Level Jacksonville Center
10:27PM 31.5925 -81.6364 210° Southwest 377 434 38,000  Level Jacksonville Center
10:28PM 31.4800 -81.6769 197° South 377 434 38,000  Level Jacksonville Center
10:29PM 31.3906 -81.7097 197° South 385 443 38,000  Level Jacksonville Center
10:30PM 31.2783 -81.7525 198° South 385 443 38,000  Level Jacksonville Center
10:31PM 31.1783 -81.7903 198° South 380 437 38,000 -60 Level Jacksonville Center
10:32PM 31.0806 -81.8253 197° South 378 435 37,900  Descending Jacksonville Center
10:33PM 30.9806 -81.8603 197° South 378 435 38,000  Climbing Jacksonville Center
10:34PM 30.8806 -81.8978 198° South 378 435 38,000  Level Jacksonville Center
10:35PM 30.7828 -81.9325 197° South 378 435 38,000  Level Jacksonville Center
10:36PM 30.6850 -81.9675 197° South 378 435 38,000  Level Jacksonville Center
10:37PM 30.5953 -82.0019 198° South 373 429 38,000  Level Jacksonville Center
10:38PM 30.4953 -82.0294 193° South 373 429 38,000 -60 Level Jacksonville Center
10:39PM 30.3975 -82.0667 198° South 373 429 37,900  Descending Jacksonville Center
10:40PM 30.2994 -82.1011 197° South 378 435 38,000  Climbing Jacksonville Center
10:41PM 30.1994 -82.1378 198° South 378 435 38,000 -360 Level Jacksonville Center
10:42PM 30.0994 -82.1722 197° South 378 435 37,300 -1,200 Descending Jacksonville Center
10:43PM 30.0017 -82.2139 200° South 378 435 35,700 -1,860 Descending Jacksonville Center
10:44PM 29.9017 -82.2506 198° South 383 441 33,600 -2,160 Descending Jacksonville Center
10:45PM 29.8078 -82.2822 196° South 372 428 31,400 -8,340 Descending Jacksonville Center
10:46PM 29.7139 -82.3114 195° South 362 417 17,000 -3,660 Descending Jacksonville Center
10:47PM 29.6139 -82.3478 198° South 362 417 24,100 2,280 Climbing Jacksonville Center
10:48PM 29.5053 -82.3486 180° South 375 432 21,600 -2,400 Descending Jacksonville Center
10:49PM 29.3925 -82.3347 174° South 388 447 19,300 -2,160 Descending Jacksonville Center
10:50PM 29.2883 -82.3236 175° South 388 447 17,300 -2,040 Descending Jacksonville Center
10:51PM 29.1858 -82.3097 173° South 378 435 15,300 -1,740 Descending Jacksonville Center
10:52PM 29.0856 -82.3008 176° South 373 429 13,900 -1,200 Descending Jacksonville Center
10:53PM 28.9894 -82.2850 172° South 362 417 13,000 -480 Descending Jacksonville Center
10:54PM 28.8789 -82.2761 176° South 362 417 13,000 -240 Level Jacksonville Center
10:56PM 28.6500 -82.2500 174° South 350 403 12,400 -660 Descending Tampa TRACON
10:57PM 28.5667 -82.2500 180° South 348 400 10,900 -720 Descending Tampa TRACON
10:58PM 28.4667 -82.2500 180° South 347 399 11,000  Climbing Tampa TRACON
10:59PM 28.3500 -82.2833 194° South 338 389 10,900 -420 Descending Tampa TRACON
11:00PM 28.2833 -82.3167 204° Southwest 310 357 10,200 -1,140 Descending Tampa TRACON
11:01PM 28.2167 -82.3500 204° Southwest 284 327 8,800 -1,500 Descending Tampa TRACON
11:02PM 28.1333 -82.3667 190° South 276 318 7,200 -1,500 Descending Tampa TRACON
11:03PM 28.0667 -82.3833 192° South 269 310 5,800 -960 Descending Tampa TRACON
11:04PM 28.0000 -82.4167 204° Southwest 264 304 5,300 -960 Descending Tampa TRACON
11:05PM 27.9167 -82.4167 180° South 261 300 3,900 -1,200 Descending Tampa TRACON
11:06PM 27.8500 -82.4333 192° South 246 283 3,000 -480 Descending Tampa TRACON
11:07PM 27.7833 -82.4333 180° South 216 249 3,000 -240 Level Tampa TRACON
11:08PM 27.7667 -82.4833 249° West 193 222 2,600 -240 Descending Tampa TRACON
11:09PM 27.7833 -82.5333 291° West 193 222 2,600  Level Tampa TRACON